Terminal Aerodrome Forecast
Issued by NWS

Home | Current Version | Previous Version | Text Only | Print | Product List | Glossary On
Versions: 1 2 3 4 5 6 7 8 9 10 11 12 13 14
000
FTUS45 KTFX 281121
TAFCTB
TAF
KCTB 281121Z 2812/2912 32010KT P6SM SCT100
     FM281500 34010KT P6SM VCSH BKN090
     FM282100 03008KT P6SM BKN090
     FM290700 VRB05KT P6SM FEW090=

USA.gov is the U.S. government's official web portal to all federal, state and local government web resources and services.